Latest Weather Observations for Cobar

IDN60801

Issued at 12:32 pm EDT Tuesday 31 March 2015 (issued every 30 minutes, with the page automatically refreshed every 10 minutes)

About weather observations | Map of weather stations | Latest weather observations for NSW | Other Formats
Station Details ID: 048027 Name: COBAR MO Lat: -31.48 Lon: 145.83 Height: 260.0 m
Data from the previous 72 hours. | See also: Recent months at Cobar
Date/Time
EDT
Temp
°C
App
Temp
°C
Dew
Point
Rel
Hum
%
Delta-T
°C
Wind Press
QNH
hPa
Press
MSL
hPa
Rain
since 9 am
mm
Dir
 
Spd
km/h
Gust
km/h
Spd
kts
Gust
kts
31/12:00pm 27.5 22.7 0.0 16 13.0 S 15 26 8 14 1023.2 1022.0 0.0
31/11:30am 27.2 23.3 1.0 18 12.6 ESE 11 17 6 9 1023.5 - 0.0
31/11:00am 26.7 22.4 1.0 18 12.4 E 13 19 7 10 1023.6 - 0.0
31/10:30am 25.7 21.6 2.3 22 11.4 ESE 13 19 7 10 1023.8 - 0.0
31/10:00am 24.7 20.4 3.1 24 10.6 E 15 22 8 12 1023.9 - 0.0
31/09:00am 21.0 17.7 4.8 34 8.0 E 11 15 6 8 1023.4 1022.3 0.0
31/08:30am 19.3 16.0 4.7 38 7.1 E 11 17 6 9 1023.1 - 0.0
31/08:00am 17.4 13.6 4.1 41 6.3 ESE 13 15 7 8 1022.8 - 0.0
31/07:30am 16.7 12.8 3.4 41 6.2 ESE 13 17 7 9 1022.6 - 0.0
31/07:00am 16.7 12.4 3.1 40 6.3 ESE 15 19 8 10 1022.3 - 0.0
31/06:30am 16.2 12.5 2.6 40 6.2 ESE 11 13 6 7 1022.1 - 0.0
31/06:05am - - - - - - - - - - - - -
31/06:00am 17.0 13.0 2.6 38 6.6 SE 13 13 7 7 1021.9 1020.7 0.0
31/05:30am 17.3 14.1 3.1 38 6.6 SE 9 13 5 7 1021.7 - 0.0
31/05:00am 17.5 14.3 3.1 38 6.7 SE 9 11 5 6 1021.7 - 0.0
31/04:30am 17.9 14.7 2.8 36 7.0 ESE 9 11 5 6 1021.8 - 0.0
31/04:00am 18.1 15.3 3.2 37 7.0 SE 7 9 4 5 1022.0 - 0.0
31/03:30am 18.5 14.9 2.9 35 7.3 E 11 13 6 7 1022.1 - 0.0
31/03:00am 19.1 15.0 2.3 32 7.8 E 13 19 7 10 1022.3 1021.0 0.0
31/02:30am 19.3 15.2 2.3 32 7.9 ESE 13 17 7 9 1022.3 - 0.0
31/02:00am 19.7 15.2 2.3 31 8.1 E 15 20 8 11 1022.4 - 0.0
31/01:30am 20.2 15.7 1.9 29 8.5 ESE 15 19 8 10 1022.4 - 0.0
31/01:00am 20.6 16.4 1.6 28 8.8 ESE 13 19 7 10 1022.4 - 0.0
31/12:30am 20.9 16.7 1.8 28 8.9 ESE 13 17 7 9 1022.5 - 0.0
31/12:00am 21.6 17.0 1.4 26 9.4 ESE 15 20 8 11 1022.6 1021.4 0.0
 
Date/Time
EDT
Temp
°C
App
Temp
°C
Dew
Point
Rel
Hum
%
Delta-T
°C
Wind Press
QNH
hPa
Press
MSL
hPa
Rain
since 9 am
mm
Dir
 
Spd
km/h
Gust
km/h
Spd
kts
Gust
kts
30/11:30pm 22.4 17.7 0.7 23 10.0 ESE 15 19 8 10 1022.7 - 0.0
30/11:00pm 22.3 18.5 1.6 25 9.7 SE 11 17 6 9 1022.8 - 0.0
30/10:30pm 22.8 19.0 1.5 24 10.0 SE 11 17 6 9 1022.7 - 0.0
30/10:00pm 22.6 19.5 3.5 28 9.3 SE 9 11 5 6 1022.5 - 0.0
30/09:30pm 23.7 20.4 2.6 25 10.2 S 9 11 5 6 1022.2 - 0.0
30/09:00pm 24.1 20.9 3.0 25 10.3 S 9 11 5 6 - 1020.9 0.0
30/08:30pm 24.5 21.3 3.1 25 10.5 S 9 11 5 6 1021.7 - 0.0
30/08:00pm 25.0 22.3 3.7 25 10.6 SSE 7 11 4 6 1021.4 - 0.0
30/07:30pm 26.0 22.3 2.2 21 11.6 S 11 15 6 8 1021.1 - 0.0
30/07:00pm 26.6 22.8 2.0 20 12.0 S 11 17 6 9 1020.9 - 0.0
30/06:30pm 27.4 23.1 0.7 17 12.8 S 13 22 7 12 1020.6 - 0.0
30/06:00pm 28.4 24.0 0.6 16 13.4 SE 13 20 7 11 1020.3 1019.2 0.0
30/05:30pm 28.7 25.3 2.1 18 13.2 S 9 15 5 8 1020.1 - 0.0
30/05:00pm 28.7 23.9 0.5 16 13.6 SE 15 22 8 12 1020.1 - 0.0
30/04:30pm 28.5 24.9 0.4 16 13.5 SW 9 26 5 14 1020.1 - 0.0
30/04:00pm 28.6 24.4 1.4 17 13.3 SSW 13 22 7 12 1020.1 - 0.0
30/03:30pm 28.3 23.5 -0.1 16 13.5 SSW 15 24 8 13 1020.2 - 0.0
30/03:00pm 28.8 24.9 1.1 16 13.5 W 11 17 6 9 1020.3 1019.2 0.0
30/02:30pm 28.4 23.3 1.0 17 13.3 SSW 17 26 9 14 1020.6 - 0.0
30/02:00pm 28.0 24.9 1.6 18 12.9 NE 7 15 4 8 1021.1 - 0.0
30/01:30pm 27.7 24.1 0.6 17 13.0 SSE 9 22 5 12 1021.5 - 0.0
30/01:00pm 28.0 25.3 2.7 19 12.6 WNW 6 9 3 5 1022.3 - 0.0
30/12:30pm 27.3 23.5 1.6 19 12.5 ESE 11 19 6 10 1022.8 - 0.0
30/12:00pm 26.0 22.2 1.8 20 11.7 ESE 11 20 6 11 1023.2 1022.0 0.0
30/11:30am 24.7 21.0 2.4 23 10.8 ESE 11 15 6 8 1023.6 - 0.0
30/11:00am 24.0 19.2 2.8 25 10.3 ESE 17 24 9 13 1023.9 - 0.0
30/10:30am 22.4 18.9 3.5 29 9.2 S 11 22 6 12 1024.1 - 0.0
30/10:00am 21.1 17.7 4.1 32 8.3 S 11 17 6 9 1023.9 - 0.0
30/09:30am 19.5 16.6 4.5 37 7.3 S 9 13 5 7 1023.7 - 0.0
30/09:00am 18.4 15.5 4.8 40 6.6 S 9 11 5 6 1023.6 1022.5 0.0
30/08:30am 17.0 14.1 4.4 43 6.0 SSW 9 11 5 6 1023.3 - 0.0
30/08:00am 16.3 13.9 4.2 44 5.7 SW 6 7 3 4 1022.9 - 0.0
30/07:30am 16.7 14.5 5.1 46 5.6 E 6 7 3 4 1022.6 - 0.0
30/07:00am 17.4 14.8 4.4 42 6.2 E 7 9 4 5 1022.3 - 0.0
30/06:30am 18.5 15.5 4.1 38 6.9 S 9 13 5 7 1022.1 - 0.0
30/06:00am 18.9 15.8 3.8 36 7.2 S 9 11 5 6 1021.9 1020.7 0.0
30/05:30am 19.4 16.9 4.9 38 7.1 S 7 9 4 5 1021.7 - 0.0
30/05:00am 20.0 17.5 5.0 37 7.4 SSE 7 7 4 4 1021.5 - 0.0
30/04:30am 20.7 18.2 4.6 34 7.9 SE 7 9 4 5 1021.6 - 0.0
30/04:00am 20.9 18.3 4.1 33 8.2 SSE 7 9 4 5 1021.6 - 0.0
30/03:30am 21.1 18.7 4.4 33 8.2 SSE 6 9 3 5 1021.6 - 0.0
30/03:00am 21.5 18.4 3.5 30 8.7 SE 9 13 5 7 1021.7 1020.5 0.0
30/02:30am 21.8 18.6 3.1 29 9.0 SSE 9 15 5 8 1021.9 - 0.0
30/02:00am 22.0 18.8 2.8 28 9.2 SSE 9 17 5 9 1022.1 - 0.0
30/01:30am 22.2 18.5 2.5 27 9.4 S 11 15 6 8 1022.0 - 0.0
30/01:00am 22.4 18.6 1.8 25 9.7 S 11 19 6 10 1021.8 - 0.0
30/12:30am 22.6 18.0 1.5 25 9.9 S 15 24 8 13 1021.7 - 0.0
30/12:00am 22.9 19.0 1.0 23 10.2 S 11 19 6 10 1021.6 1020.4 0.0
 
Date/Time
EDT
Temp
°C
App
Temp
°C
Dew
Point
Rel
Hum
%
Delta-T
°C
Wind Press
QNH
hPa
Press
MSL
hPa
Rain
since 9 am
mm
Dir
 
Spd
km/h
Gust
km/h
Spd
kts
Gust
kts
29/11:30pm 23.2 18.3 -0.3 21 10.7 S 15 22 8 12 1021.8 - 0.0
29/11:00pm 22.8 19.2 0.4 22 10.3 S 9 13 5 7 1022.1 - 0.0
29/10:30pm 23.4 19.7 -0.2 21 10.8 S 9 13 5 7 1022.3 - 0.0
29/10:00pm 23.7 19.5 -0.8 19 11.1 S 11 19 6 10 1022.4 - 0.0
29/09:30pm 23.8 20.0 -1.0 19 11.2 S 9 15 5 8 1022.2 - 0.0
29/09:00pm 24.1 20.3 -0.7 19 11.3 S 9 13 5 7 1022.1 1020.9 0.0
29/08:30pm 24.6 20.3 -1.7 17 11.8 S 11 15 6 8 1022.1 - 0.0
29/08:00pm 24.9 20.7 -1.0 18 11.8 S 11 15 6 8 1021.9 - 0.0
29/07:30pm 25.3 20.7 -1.3 17 12.1 SSW 13 19 7 10 1021.9 - 0.0
29/07:00pm 25.9 21.8 -3.0 14 12.8 SW 9 13 5 7 1021.5 - 0.0
29/06:30pm 26.2 21.8 -2.7 15 12.9 SW 11 15 6 8 1021.2 - 0.0
29/06:00pm 26.5 21.7 -2.8 14 13.1 SW 13 20 7 11 1020.9 1019.7 0.0
29/05:30pm 26.9 22.1 -2.7 14 13.3 SSW 13 19 7 10 1020.7 - 0.0
29/05:00pm 27.1 21.9 -2.7 14 13.4 S 15 22 8 12 1020.6 - 0.0
29/04:30pm 27.7 23.3 -2.5 13 13.7 SW 11 20 6 11 1020.6 - 0.0
29/04:00pm 28.0 23.6 -2.6 13 13.9 SSW 11 15 6 8 1020.4 - 0.0
29/03:30pm 28.1 23.3 -2.9 13 14.0 SW 13 19 7 10 1020.8 - 0.0
29/03:00pm 28.7 24.8 -1.3 14 14.0 E 9 22 5 12 1021.2 1020.0 0.0
29/02:30pm 27.3 22.5 -2.6 14 13.5 WSW 13 22 7 12 1021.6 - 0.0
29/02:00pm 28.0 24.1 -1.7 14 13.7 ESE 9 17 5 9 1022.1 - 0.0
29/01:30pm 26.5 23.0 -1.5 16 12.8 SSE 7 13 4 7 1022.4 - 0.0
29/01:00pm 26.8 23.6 0.9 18 12.4 WSW 7 17 4 9 1022.9 - 0.0
29/12:30pm 26.4 22.6 -0.4 17 12.5 SSW 9 15 5 8 1023.0 - 0.0
29/12:00pm 25.5 22.1 -0.9 17 12.1 SE 7 11 4 6 1023.3 1022.1 0.0
29/11:30am 24.5 21.0 -1.5 18 11.7 SE 7 11 4 6 1023.5 - 0.0
29/11:00am 23.7 19.8 -1.3 19 11.3 E 9 15 5 8 1023.7 - 0.0
29/10:30am 22.7 18.5 -0.6 21 10.5 ESE 11 17 6 9 1023.6 - 0.0
29/10:00am 21.8 17.6 -0.9 22 10.1 E 11 13 6 7 1023.6 - 0.0
29/09:30am 20.8 16.6 -0.6 24 9.5 E 11 17 6 9 1023.4 - 0.0
29/09:00am 19.7 15.1 -1.3 24 9.1 E 13 19 7 10 1022.9 1021.7 0.0
29/08:30am 17.3 13.2 -0.2 30 7.6 E 11 15 6 8 1022.5 - 0.0
29/08:00am 14.7 11.0 0.2 37 6.2 E 9 11 5 6 1022.3 - 0.0
29/07:30am 13.8 10.2 0.4 40 5.7 ESE 9 11 5 6 1022.0 - 0.0
29/07:00am 14.2 10.9 0.4 39 5.9 SSE 7 9 4 5 1022.0 - 0.0
29/06:30am 13.6 9.9 0.1 39 5.7 SSE 9 13 5 7 1021.5 - 0.0
29/06:00am 13.3 10.2 1.6 45 5.1 S 7 9 4 5 1021.5 1020.3 0.0
29/05:30am 13.9 10.1 -0.4 37 6.0 S 9 11 5 6 1021.2 - 0.0
29/05:00am 14.9 11.1 -0.5 35 6.5 ESE 9 11 5 6 1020.9 - 0.0
29/04:30am 14.7 11.0 0.2 37 6.2 ESE 9 9 5 5 1020.6 - 0.0
29/04:00am 14.4 10.8 0.4 38 6.0 E 9 11 5 6 1020.0 - 0.0
29/03:30am 14.0 10.3 0.1 38 5.9 SE 9 11 5 6 1020.2 - 0.0
29/03:00am 15.0 11.2 -1.0 33 6.7 S 9 11 5 6 1020.7 1019.5 0.0
29/02:30am 15.5 12.3 0.9 37 6.4 SSE 7 9 4 5 1021.0 - 0.0
29/02:00am 15.3 12.0 0.2 35 6.5 SE 7 9 4 5 1021.3 - 0.0
29/01:30am 16.5 12.8 0.2 33 7.1 ESE 9 9 5 5 1021.6 - 0.0
29/01:00am 16.7 13.5 0.8 34 7.0 ESE 7 9 4 5 1021.6 - 0.0
29/12:30am 17.4 13.8 0.3 31 7.5 ESE 9 9 5 5 1021.6 - 0.0
29/12:00am 18.0 14.5 1.4 32 7.5 ESE 9 11 5 6 1021.6 1020.4 0.0
 
Date/Time
EDT
Temp
°C
App
Temp
°C
Dew
Point
Rel
Hum
%
Delta-T
°C
Wind Press
QNH
hPa
Press
MSL
hPa
Rain
since 9 am
mm
Dir
 
Spd
km/h
Gust
km/h
Spd
kts
Gust
kts
28/11:30pm 18.1 14.6 1.2 32 7.6 ESE 9 11 5 6 1021.8 - 0.0
28/11:00pm 17.9 14.3 0.9 32 7.6 SE 9 11 5 6 1022.0 - 0.0
28/10:30pm 19.0 15.3 0.0 28 8.4 SE 9 11 5 6 1022.1 - 0.0
28/10:00pm 19.9 16.2 -0.1 26 8.9 SE 9 13 5 7 1021.9 - 0.0
28/09:30pm 20.6 16.8 -0.6 24 9.4 SSE 9 13 5 7 1021.8 - 0.0
28/09:00pm 21.0 17.2 -1.0 23 9.7 SSE 9 13 5 7 1021.5 1020.3 0.0
28/08:30pm 21.6 17.8 -0.9 22 10.0 S 9 11 5 6 1021.4 - 0.0
28/08:00pm 22.3 18.4 -1.4 20 10.5 S 9 11 5 6 1020.9 - 0.0
28/07:30pm 23.2 19.9 -0.2 21 10.7 S 7 9 4 5 1020.6 - 0.0
28/07:00pm 24.4 20.4 -2.6 16 11.9 S 9 13 5 7 1020.3 - 0.0
28/06:30pm 25.0 21.0 -2.5 16 12.2 S 9 13 5 7 1020.3 - 0.0
28/06:00pm 25.7 21.3 -2.1 16 12.5 SSW 11 15 6 8 1020.2 1019.1 0.0
28/05:30pm 26.0 22.4 -1.8 16 12.6 S 7 13 4 7 1020.2 - 0.0
28/05:00pm 25.8 22.0 -1.0 17 12.3 SSW 9 17 5 9 1020.4 - 0.0
28/04:30pm 25.9 22.0 -1.6 16 12.5 S 9 19 5 10 1020.6 - 0.0
28/04:00pm 25.5 21.2 -1.7 16 12.3 E 11 20 6 11 1020.8 - 0.0
28/03:30pm 25.4 21.3 -0.2 18 11.9 S 11 19 6 10 1021.3 - 0.0
28/03:00pm 24.7 20.8 1.0 21 11.2 S 11 19 6 10 1021.5 1020.3 0.0
28/02:30pm 24.1 20.5 0.5 21 11.0 SSE 9 19 5 10 1022.0 - 0.0
28/02:00pm 23.5 18.6 -0.8 20 11.0 SSE 15 20 8 11 1022.5 - 0.0
28/01:30pm 22.8 19.1 2.2 26 9.8 SSW 11 19 6 10 1022.8 - 0.0
28/01:00pm 23.6 20.2 2.0 24 10.3 E 9 15 5 8 1023.4 - 0.0

Other Formats:

Comma delimited format used in spreadsheet applications
http://www.bom.gov.au/fwo/IDN60801/IDN60801.94711.axf

JavaScript Object Notation format (JSON) in row-major order
http://www.bom.gov.au/fwo/IDN60801/IDN60801.94711.json